sensor_id;sensor_type;location;lat;lon;timestamp;P1;durP1;ratioP1;P2;durP2;ratioP2
27491;SDS011;14927;51.210;6.838;2023-03-12T00:00:21;12.27;;;4.75;;
27491;SDS011;14927;51.210;6.838;2023-03-12T00:03:07;9.70;;;4.95;;
27491;SDS011;14927;51.210;6.838;2023-03-12T00:05:52;9.57;;;4.13;;
27491;SDS011;14927;51.210;6.838;2023-03-12T00:08:37;13.63;;;4.53;;
27491;SDS011;14927;51.210;6.838;2023-03-12T00:11:23;10.05;;;3.90;;
27491;SDS011;14927;51.210;6.838;2023-03-12T00:14:07;11.65;;;4.85;;
27491;SDS011;14927;51.210;6.838;2023-03-12T00:16:52;9.82;;;4.63;;
27491;SDS011;14927;51.210;6.838;2023-03-12T00:19:38;13.00;;;4.70;;
27491;SDS011;14927;51.210;6.838;2023-03-12T00:22:23;7.68;;;3.92;;
27491;SDS011;14927;51.210;6.838;2023-03-12T00:25:13;8.70;;;4.13;;
27491;SDS011;14927;51.210;6.838;2023-03-12T00:27:59;11.40;;;4.38;;
27491;SDS011;14927;51.210;6.838;2023-03-12T00:30:43;9.30;;;3.55;;
27491;SDS011;14927;51.210;6.838;2023-03-12T00:33:28;7.47;;;3.30;;
27491;SDS011;14927;51.210;6.838;2023-03-12T00:36:13;6.75;;;3.28;;
27491;SDS011;14927;51.210;6.838;2023-03-12T00:38:58;10.10;;;3.92;;
27491;SDS011;14927;51.210;6.838;2023-03-12T00:41:44;12.82;;;3.63;;
27491;SDS011;14927;51.210;6.838;2023-03-12T00:44:28;8.30;;;3.50;;
27491;SDS011;14927;51.210;6.838;2023-03-12T00:47:13;8.60;;;3.13;;
27491;SDS011;14927;51.210;6.838;2023-03-12T00:49:58;9.75;;;3.22;;
27491;SDS011;14927;51.210;6.838;2023-03-12T00:52:42;10.30;;;3.40;;
27491;SDS011;14927;51.210;6.838;2023-03-12T00:55:27;7.90;;;3.15;;
27491;SDS011;14927;51.210;6.838;2023-03-12T00:58:12;9.85;;;3.67;;
27491;SDS011;14927;51.210;6.838;2023-03-12T01:00:56;7.53;;;2.92;;
27491;SDS011;14927;51.210;6.838;2023-03-12T01:03:41;6.75;;;2.83;;
27491;SDS011;14927;51.210;6.838;2023-03-12T01:06:26;9.55;;;3.50;;
27491;SDS011;14927;51.210;6.838;2023-03-12T01:09:10;8.32;;;2.35;;
27491;SDS011;14927;51.210;6.838;2023-03-12T01:11:56;7.15;;;3.13;;
27491;SDS011;14927;51.210;6.838;2023-03-12T01:14:40;8.45;;;2.88;;
27491;SDS011;14927;51.210;6.838;2023-03-12T01:17:25;6.82;;;2.60;;
27491;SDS011;14927;51.210;6.838;2023-03-12T01:20:10;8.50;;;2.92;;
27491;SDS011;14927;51.210;6.838;2023-03-12T01:22:55;5.78;;;2.50;;
27491;SDS011;14927;51.210;6.838;2023-03-12T01:25:40;12.18;;;3.40;;
27491;SDS011;14927;51.210;6.838;2023-03-12T01:28:25;7.50;;;2.53;;
27491;SDS011;14927;51.210;6.838;2023-03-12T01:31:14;7.53;;;2.60;;
27491;SDS011;14927;51.210;6.838;2023-03-12T01:34:01;9.32;;;2.90;;
27491;SDS011;14927;51.210;6.838;2023-03-12T01:36:46;8.82;;;3.15;;
27491;SDS011;14927;51.210;6.838;2023-03-12T01:39:30;7.35;;;2.47;;
27491;SDS011;14927;51.210;6.838;2023-03-12T01:42:15;5.03;;;2.75;;
27491;SDS011;14927;51.210;6.838;2023-03-12T01:45:01;9.02;;;2.72;;
27491;SDS011;14927;51.210;6.838;2023-03-12T01:47:47;5.47;;;2.53;;
27491;SDS011;14927;51.210;6.838;2023-03-12T01:50:31;9.55;;;2.83;;
27491;SDS011;14927;51.210;6.838;2023-03-12T01:53:16;7.25;;;2.80;;
27491;SDS011;14927;51.210;6.838;2023-03-12T01:56:01;8.80;;;3.05;;
27491;SDS011;14927;51.210;6.838;2023-03-12T01:58:48;10.52;;;3.05;;
27491;SDS011;14927;51.210;6.838;2023-03-12T02:01:36;8.90;;;3.13;;
27491;SDS011;14927;51.210;6.838;2023-03-12T02:04:22;8.63;;;2.80;;
27491;SDS011;14927;51.210;6.838;2023-03-12T02:07:10;9.90;;;3.10;;
27491;SDS011;14927;51.210;6.838;2023-03-12T02:09:57;8.38;;;3.13;;
27491;SDS011;14927;51.210;6.838;2023-03-12T02:12:42;9.60;;;2.60;;
27491;SDS011;14927;51.210;6.838;2023-03-12T02:15:26;6.90;;;2.92;;
27491;SDS011;14927;51.210;6.838;2023-03-12T02:18:12;7.00;;;2.88;;
27491;SDS011;14927;51.210;6.838;2023-03-12T02:24:19;6.22;;;2.40;;
27491;SDS011;14927;51.210;6.838;2023-03-12T02:27:13;7.35;;;2.80;;
27491;SDS011;14927;51.210;6.838;2023-03-12T02:30:01;7.25;;;2.50;;
27491;SDS011;14927;51.210;6.838;2023-03-12T02:32:48;8.82;;;2.80;;
27491;SDS011;14927;51.210;6.838;2023-03-12T02:35:35;6.88;;;2.80;;
27491;SDS011;14927;51.210;6.838;2023-03-12T02:41:27;8.95;;;2.85;;
27491;SDS011;14927;51.210;6.838;2023-03-12T02:44:16;6.88;;;2.85;;
27491;SDS011;14927;51.210;6.838;2023-03-12T02:47:04;7.68;;;2.50;;
27491;SDS011;14927;51.210;6.838;2023-03-12T02:49:49;8.23;;;3.10;;
27491;SDS011;14927;51.210;6.838;2023-03-12T02:52:35;7.97;;;2.85;;
27491;SDS011;14927;51.210;6.838;2023-03-12T02:55:20;10.15;;;2.90;;
27491;SDS011;14927;51.210;6.838;2023-03-12T02:58:05;7.47;;;3.05;;
27491;SDS011;14927;51.210;6.838;2023-03-12T03:00:50;6.03;;;2.25;;
27491;SDS011;14927;51.210;6.838;2023-03-12T03:03:34;7.45;;;2.40;;
27491;SDS011;14927;51.210;6.838;2023-03-12T03:06:19;7.18;;;2.58;;
27491;SDS011;14927;51.210;6.838;2023-03-12T03:09:04;7.90;;;2.72;;
27491;SDS011;14927;51.210;6.838;2023-03-12T03:11:49;7.07;;;2.50;;
27491;SDS011;14927;51.210;6.838;2023-03-12T03:14:34;6.05;;;2.13;;
27491;SDS011;14927;51.210;6.838;2023-03-12T03:17:18;3.90;;;2.38;;
27491;SDS011;14927;51.210;6.838;2023-03-12T03:20:06;4.57;;;2.10;;
27491;SDS011;14927;51.210;6.838;2023-03-12T03:22:54;5.97;;;2.30;;
27491;SDS011;14927;51.210;6.838;2023-03-12T03:25:38;4.35;;;2.15;;
27491;SDS011;14927;51.210;6.838;2023-03-12T03:28:24;5.50;;;2.38;;
27491;SDS011;14927;51.210;6.838;2023-03-12T03:31:10;4.53;;;2.05;;
27491;SDS011;14927;51.210;6.838;2023-03-12T03:33:54;8.65;;;2.20;;
27491;SDS011;14927;51.210;6.838;2023-03-12T03:36:39;6.22;;;2.30;;
27491;SDS011;14927;51.210;6.838;2023-03-12T03:39:24;7.28;;;2.17;;
27491;SDS011;14927;51.210;6.838;2023-03-12T03:42:08;8.35;;;2.10;;
27491;SDS011;14927;51.210;6.838;2023-03-12T03:44:53;6.40;;;2.00;;
27491;SDS011;14927;51.210;6.838;2023-03-12T03:47:37;7.10;;;2.20;;
27491;SDS011;14927;51.210;6.838;2023-03-12T03:50:22;5.80;;;1.95;;
27491;SDS011;14927;51.210;6.838;2023-03-12T03:53:07;7.53;;;2.42;;
27491;SDS011;14927;51.210;6.838;2023-03-12T03:55:52;6.95;;;2.58;;
27491;SDS011;14927;51.210;6.838;2023-03-12T03:58:37;5.75;;;2.15;;
27491;SDS011;14927;51.210;6.838;2023-03-12T04:01:22;4.85;;;1.77;;
27491;SDS011;14927;51.210;6.838;2023-03-12T04:04:07;9.52;;;2.53;;
27491;SDS011;14927;51.210;6.838;2023-03-12T04:06:51;5.38;;;1.73;;
27491;SDS011;14927;51.210;6.838;2023-03-12T04:09:36;5.95;;;2.05;;
27491;SDS011;14927;51.210;6.838;2023-03-12T04:12:21;9.23;;;2.00;;
27491;SDS011;14927;51.210;6.838;2023-03-12T04:15:08;6.80;;;2.03;;
27491;SDS011;14927;51.210;6.838;2023-03-12T04:17:53;5.28;;;2.05;;
27491;SDS011;14927;51.210;6.838;2023-03-12T04:20:37;3.38;;;1.70;;
27491;SDS011;14927;51.210;6.838;2023-03-12T04:26:50;4.53;;;1.77;;
27491;SDS011;14927;51.210;6.838;2023-03-12T04:30:12;4.75;;;1.90;;
27491;SDS011;14927;51.210;6.838;2023-03-12T04:36:22;8.15;;;2.05;;
27491;SDS011;14927;51.210;6.838;2023-03-12T04:39:07;5.10;;;2.00;;
27491;SDS011;14927;51.210;6.838;2023-03-12T04:41:52;8.75;;;2.20;;
27491;SDS011;14927;51.210;6.838;2023-03-12T04:44:37;5.50;;;1.95;;
27491;SDS011;14927;51.210;6.838;2023-03-12T04:47:23;8.75;;;1.85;;
27491;SDS011;14927;51.210;6.838;2023-03-12T04:50:11;9.93;;;2.40;;
27491;SDS011;14927;51.210;6.838;2023-03-12T04:52:56;4.53;;;2.00;;
27491;SDS011;14927;51.210;6.838;2023-03-12T04:55:41;6.53;;;2.33;;
27491;SDS011;14927;51.210;6.838;2023-03-12T04:58:25;4.88;;;1.65;;
27491;SDS011;14927;51.210;6.838;2023-03-12T05:01:32;10.32;;;2.00;;
27491;SDS011;14927;51.210;6.838;2023-03-12T05:04:18;8.13;;;2.13;;
27491;SDS011;14927;51.210;6.838;2023-03-12T05:07:02;5.55;;;2.47;;
27491;SDS011;14927;51.210;6.838;2023-03-12T05:09:47;4.55;;;1.75;;
27491;SDS011;14927;51.210;6.838;2023-03-12T05:12:32;6.85;;;2.30;;
27491;SDS011;14927;51.210;6.838;2023-03-12T05:15:16;5.03;;;1.80;;
27491;SDS011;14927;51.210;6.838;2023-03-12T05:18:01;5.93;;;1.98;;
27491;SDS011;14927;51.210;6.838;2023-03-12T05:20:46;7.47;;;2.40;;
27491;SDS011;14927;51.210;6.838;2023-03-12T05:23:40;9.55;;;1.90;;
27491;SDS011;14927;51.210;6.838;2023-03-12T05:26:27;6.03;;;2.17;;
27491;SDS011;14927;51.210;6.838;2023-03-12T05:29:15;7.68;;;2.28;;
27491;SDS011;14927;51.210;6.838;2023-03-12T05:32:02;5.88;;;2.13;;
27491;SDS011;14927;51.210;6.838;2023-03-12T05:34:48;7.53;;;2.35;;
27491;SDS011;14927;51.210;6.838;2023-03-12T05:37:32;6.35;;;1.95;;
27491;SDS011;14927;51.210;6.838;2023-03-12T05:40:17;5.97;;;1.95;;
27491;SDS011;14927;51.210;6.838;2023-03-12T05:43:02;4.00;;;2.05;;
27491;SDS011;14927;51.210;6.838;2023-03-12T05:45:47;6.72;;;1.58;;
27491;SDS011;14927;51.210;6.838;2023-03-12T05:48:35;6.57;;;2.10;;
27491;SDS011;14927;51.210;6.838;2023-03-12T05:51:20;9.85;;;2.55;;
27491;SDS011;14927;51.210;6.838;2023-03-12T05:54:08;6.35;;;1.90;;
27491;SDS011;14927;51.210;6.838;2023-03-12T05:56:54;5.88;;;1.73;;
27491;SDS011;14927;51.210;6.838;2023-03-12T05:59:39;7.28;;;1.95;;
27491;SDS011;14927;51.210;6.838;2023-03-12T06:02:26;7.00;;;2.30;;
27491;SDS011;14927;51.210;6.838;2023-03-12T06:05:11;3.47;;;1.77;;
27491;SDS011;14927;51.210;6.838;2023-03-12T06:07:56;8.25;;;1.67;;
27491;SDS011;14927;51.210;6.838;2023-03-12T06:10:41;7.85;;;2.03;;
27491;SDS011;14927;51.210;6.838;2023-03-12T06:13:25;7.50;;;2.45;;
27491;SDS011;14927;51.210;6.838;2023-03-12T06:16:15;9.48;;;2.72;;
27491;SDS011;14927;51.210;6.838;2023-03-12T06:19:03;10.38;;;2.65;;
27491;SDS011;14927;51.210;6.838;2023-03-12T06:21:48;5.18;;;1.85;;
27491;SDS011;14927;51.210;6.838;2023-03-12T06:24:33;8.57;;;2.03;;
27491;SDS011;14927;51.210;6.838;2023-03-12T06:27:18;9.13;;;2.55;;
27491;SDS011;14927;51.210;6.838;2023-03-12T06:30:03;7.85;;;2.53;;
27491;SDS011;14927;51.210;6.838;2023-03-12T06:32:48;6.15;;;2.38;;
27491;SDS011;14927;51.210;6.838;2023-03-12T06:35:33;7.88;;;2.50;;
27491;SDS011;14927;51.210;6.838;2023-03-12T06:38:17;6.50;;;2.22;;
27491;SDS011;14927;51.210;6.838;2023-03-12T06:41:03;9.10;;;2.72;;
27491;SDS011;14927;51.210;6.838;2023-03-12T06:44:08;9.57;;;2.70;;
27491;SDS011;14927;51.210;6.838;2023-03-12T06:47:30;9.20;;;2.38;;
27491;SDS011;14927;51.210;6.838;2023-03-12T06:50:15;11.00;;;3.00;;
27491;SDS011;14927;51.210;6.838;2023-03-12T06:52:59;7.05;;;2.53;;
27491;SDS011;14927;51.210;6.838;2023-03-12T06:55:45;6.78;;;2.67;;
27491;SDS011;14927;51.210;6.838;2023-03-12T06:58:32;8.57;;;2.42;;
27491;SDS011;14927;51.210;6.838;2023-03-12T07:01:17;7.00;;;2.42;;
27491;SDS011;14927;51.210;6.838;2023-03-12T07:04:02;5.60;;;2.70;;
27491;SDS011;14927;51.210;6.838;2023-03-12T07:06:46;12.00;;;4.72;;
27491;SDS011;14927;51.210;6.838;2023-03-12T07:09:34;8.40;;;3.08;;
27491;SDS011;14927;51.210;6.838;2023-03-12T07:12:20;9.77;;;3.67;;
27491;SDS011;14927;51.210;6.838;2023-03-12T07:15:20;8.82;;;2.88;;
27491;SDS011;14927;51.210;6.838;2023-03-12T07:18:29;7.65;;;3.08;;
27491;SDS011;14927;51.210;6.838;2023-03-12T07:21:13;11.65;;;4.13;;
27491;SDS011;14927;51.210;6.838;2023-03-12T07:24:06;7.72;;;3.08;;
27491;SDS011;14927;51.210;6.838;2023-03-12T07:26:51;11.05;;;3.53;;
27491;SDS011;14927;51.210;6.838;2023-03-12T07:29:36;8.60;;;2.53;;
27491;SDS011;14927;51.210;6.838;2023-03-12T07:32:21;14.27;;;3.15;;
27491;SDS011;14927;51.210;6.838;2023-03-12T07:35:05;7.90;;;3.30;;
27491;SDS011;14927;51.210;6.838;2023-03-12T07:37:51;9.23;;;2.92;;
27491;SDS011;14927;51.210;6.838;2023-03-12T07:40:35;10.60;;;3.00;;
27491;SDS011;14927;51.210;6.838;2023-03-12T07:43:20;10.07;;;2.92;;
27491;SDS011;14927;51.210;6.838;2023-03-12T07:46:05;7.93;;;3.15;;
27491;SDS011;14927;51.210;6.838;2023-03-12T07:48:50;9.70;;;2.72;;
27491;SDS011;14927;51.210;6.838;2023-03-12T07:51:35;5.55;;;2.50;;
27491;SDS011;14927;51.210;6.838;2023-03-12T07:54:19;8.32;;;2.75;;
27491;SDS011;14927;51.210;6.838;2023-03-12T07:57:07;7.00;;;2.97;;
27491;SDS011;14927;51.210;6.838;2023-03-12T07:59:52;7.70;;;3.08;;
27491;SDS011;14927;51.210;6.838;2023-03-12T08:02:37;21.33;;;3.10;;
27491;SDS011;14927;51.210;6.838;2023-03-12T08:05:22;10.98;;;3.25;;
27491;SDS011;14927;51.210;6.838;2023-03-12T08:08:08;8.98;;;2.72;;
27491;SDS011;14927;51.210;6.838;2023-03-12T08:10:52;11.45;;;2.55;;
27491;SDS011;14927;51.210;6.838;2023-03-12T08:13:37;6.68;;;3.25;;
27491;SDS011;14927;51.210;6.838;2023-03-12T08:16:22;8.55;;;3.22;;
27491;SDS011;14927;51.210;6.838;2023-03-12T08:19:06;6.85;;;2.95;;
27491;SDS011;14927;51.210;6.838;2023-03-12T08:21:51;9.63;;;3.08;;
27491;SDS011;14927;51.210;6.838;2023-03-12T08:24:37;6.88;;;2.70;;
27491;SDS011;14927;51.210;6.838;2023-03-12T08:27:21;10.95;;;3.20;;
27491;SDS011;14927;51.210;6.838;2023-03-12T08:30:06;9.20;;;2.78;;
27491;SDS011;14927;51.210;6.838;2023-03-12T08:32:52;7.97;;;2.80;;
27491;SDS011;14927;51.210;6.838;2023-03-12T08:35:37;8.65;;;3.60;;
27491;SDS011;14927;51.210;6.838;2023-03-12T08:38:21;7.30;;;3.25;;
27491;SDS011;14927;51.210;6.838;2023-03-12T08:41:06;7.50;;;3.05;;
27491;SDS011;14927;51.210;6.838;2023-03-12T08:43:51;12.85;;;3.30;;
27491;SDS011;14927;51.210;6.838;2023-03-12T08:46:35;8.10;;;3.00;;
27491;SDS011;14927;51.210;6.838;2023-03-12T08:49:20;6.30;;;2.70;;
27491;SDS011;14927;51.210;6.838;2023-03-12T08:52:05;11.70;;;3.60;;
27491;SDS011;14927;51.210;6.838;2023-03-12T08:54:50;7.88;;;3.10;;
27491;SDS011;14927;51.210;6.838;2023-03-12T08:57:35;6.13;;;2.75;;
27491;SDS011;14927;51.210;6.838;2023-03-12T09:00:20;7.07;;;3.22;;
27491;SDS011;14927;51.210;6.838;2023-03-12T09:03:06;5.97;;;2.80;;
27491;SDS011;14927;51.210;6.838;2023-03-12T09:06:07;10.65;;;3.08;;
27491;SDS011;14927;51.210;6.838;2023-03-12T09:08:58;9.98;;;2.88;;
27491;SDS011;14927;51.210;6.838;2023-03-12T09:11:47;7.38;;;2.50;;
27491;SDS011;14927;51.210;6.838;2023-03-12T09:14:32;5.80;;;3.15;;
27491;SDS011;14927;51.210;6.838;2023-03-12T09:17:16;6.85;;;2.72;;
27491;SDS011;14927;51.210;6.838;2023-03-12T09:20:02;10.88;;;3.53;;
27491;SDS011;14927;51.210;6.838;2023-03-12T09:22:51;7.82;;;3.65;;
27491;SDS011;14927;51.210;6.838;2023-03-12T09:25:36;11.05;;;3.70;;
27491;SDS011;14927;51.210;6.838;2023-03-12T09:28:20;6.20;;;3.40;;
27491;SDS011;14927;51.210;6.838;2023-03-12T09:31:05;10.82;;;4.07;;
27491;SDS011;14927;51.210;6.838;2023-03-12T09:33:51;7.32;;;3.60;;
27491;SDS011;14927;51.210;6.838;2023-03-12T09:36:36;6.45;;;3.20;;
27491;SDS011;14927;51.210;6.838;2023-03-12T09:39:21;7.95;;;3.33;;
27491;SDS011;14927;51.210;6.838;2023-03-12T09:42:06;6.18;;;3.50;;
27491;SDS011;14927;51.210;6.838;2023-03-12T09:45:26;9.93;;;3.88;;
27491;SDS011;14927;51.210;6.838;2023-03-12T09:48:17;7.15;;;3.83;;
27491;SDS011;14927;51.210;6.838;2023-03-12T09:51:08;10.80;;;4.50;;
27491;SDS011;14927;51.210;6.838;2023-03-12T09:54:06;7.53;;;3.83;;
27491;SDS011;14927;51.210;6.838;2023-03-12T09:57:13;6.07;;;4.05;;
27491;SDS011;14927;51.210;6.838;2023-03-12T10:00:15;7.32;;;4.18;;
27491;SDS011;14927;51.210;6.838;2023-03-12T10:06:25;37.65;;;22.33;;
27491;SDS011;14927;51.210;6.838;2023-03-12T10:22:30;8.55;;;5.15;;
27491;SDS011;14927;51.210;6.838;2023-03-12T10:25:45;7.05;;;4.45;;
27491;SDS011;14927;51.210;6.838;2023-03-12T10:28:40;8.00;;;4.25;;
27491;SDS011;14927;51.210;6.838;2023-03-12T10:31:50;9.90;;;4.85;;
27491;SDS011;14927;51.210;6.838;2023-03-12T10:37:43;7.18;;;5.40;;
27491;SDS011;14927;51.210;6.838;2023-03-12T10:40:40;6.35;;;4.45;;
27491;SDS011;14927;51.210;6.838;2023-03-12T10:43:24;7.78;;;5.68;;
27491;SDS011;14927;51.210;6.838;2023-03-12T10:49:31;8.40;;;5.50;;
27491;SDS011;14927;51.210;6.838;2023-03-12T10:52:20;5.97;;;4.95;;
27491;SDS011;14927;51.210;6.838;2023-03-12T10:58:22;5.68;;;5.10;;
27491;SDS011;14927;51.210;6.838;2023-03-12T11:04:14;6.07;;;5.15;;
27491;SDS011;14927;51.210;6.838;2023-03-12T11:12:55;6.82;;;4.95;;
27491;SDS011;14927;51.210;6.838;2023-03-12T11:15:42;8.88;;;5.22;;
27491;SDS011;14927;51.210;6.838;2023-03-12T11:18:28;7.07;;;5.30;;
27491;SDS011;14927;51.210;6.838;2023-03-12T11:21:20;7.85;;;5.88;;
27491;SDS011;14927;51.210;6.838;2023-03-12T11:24:12;6.10;;;5.50;;
27491;SDS011;14927;51.210;6.838;2023-03-12T11:30:15;6.47;;;5.55;;
27491;SDS011;14927;51.210;6.838;2023-03-12T11:33:26;7.50;;;5.97;;
27491;SDS011;14927;51.210;6.838;2023-03-12T11:36:17;6.45;;;5.60;;
27491;SDS011;14927;51.210;6.838;2023-03-12T12:02:03;8.65;;;6.18;;
27491;SDS011;14927;51.210;6.838;2023-03-12T12:11:36;13.10;;;6.93;;
27491;SDS011;14927;51.210;6.838;2023-03-12T12:15:11;11.43;;;6.68;;
27491;SDS011;14927;51.210;6.838;2023-03-12T12:18:27;8.90;;;7.28;;
27491;SDS011;14927;51.210;6.838;2023-03-12T12:28:04;10.18;;;7.03;;
27491;SDS011;14927;51.210;6.838;2023-03-12T12:43:41;13.90;;;8.57;;
27491;SDS011;14927;51.210;6.838;2023-03-12T12:46:43;11.70;;;8.75;;
27491;SDS011;14927;51.210;6.838;2023-03-12T12:52:33;18.65;;;9.57;;
27491;SDS011;14927;51.210;6.838;2023-03-12T12:55:36;17.95;;;10.23;;
27491;SDS011;14927;51.210;6.838;2023-03-12T13:01:46;20.58;;;10.57;;
27491;SDS011;14927;51.210;6.838;2023-03-12T13:04:35;21.63;;;10.60;;
27491;SDS011;14927;51.210;6.838;2023-03-12T13:10:07;23.05;;;9.68;;
27491;SDS011;14927;51.210;6.838;2023-03-12T13:13:18;27.83;;;8.95;;
27491;SDS011;14927;51.210;6.838;2023-03-12T13:16:17;27.25;;;8.02;;
27491;SDS011;14927;51.210;6.838;2023-03-12T13:19:22;28.88;;;8.15;;
27491;SDS011;14927;51.210;6.838;2023-03-12T13:22:12;27.00;;;6.95;;
27491;SDS011;14927;51.210;6.838;2023-03-12T13:31:35;32.33;;;6.40;;
27491;SDS011;14927;51.210;6.838;2023-03-12T13:37:56;37.10;;;7.00;;
27491;SDS011;14927;51.210;6.838;2023-03-12T13:46:32;27.70;;;6.45;;
27491;SDS011;14927;51.210;6.838;2023-03-12T13:49:22;25.05;;;5.32;;
27491;SDS011;14927;51.210;6.838;2023-03-12T13:58:16;24.67;;;4.90;;
27491;SDS011;14927;51.210;6.838;2023-03-12T14:01:06;27.15;;;6.32;;
27491;SDS011;14927;51.210;6.838;2023-03-12T14:04:07;26.08;;;5.13;;
27491;SDS011;14927;51.210;6.838;2023-03-12T14:17:14;31.23;;;6.20;;
27491;SDS011;14927;51.210;6.838;2023-03-12T14:20:17;22.90;;;5.03;;
27491;SDS011;14927;51.210;6.838;2023-03-12T14:23:05;30.58;;;5.30;;
27491;SDS011;14927;51.210;6.838;2023-03-12T14:25:57;27.42;;;4.75;;
27491;SDS011;14927;51.210;6.838;2023-03-12T14:28:51;27.58;;;5.50;;
27491;SDS011;14927;51.210;6.838;2023-03-12T14:31:49;22.85;;;5.50;;
27491;SDS011;14927;51.210;6.838;2023-03-12T14:34:42;21.45;;;4.63;;
27491;SDS011;14927;51.210;6.838;2023-03-12T14:37:38;20.83;;;3.92;;
27491;SDS011;14927;51.210;6.838;2023-03-12T14:40:36;27.35;;;4.30;;
27491;SDS011;14927;51.210;6.838;2023-03-12T14:44:09;20.83;;;4.70;;
27491;SDS011;14927;51.210;6.838;2023-03-12T14:47:09;26.30;;;4.95;;
27491;SDS011;14927;51.210;6.838;2023-03-12T14:50:00;19.60;;;4.30;;
27491;SDS011;14927;51.210;6.838;2023-03-12T14:52:46;19.13;;;4.32;;
27491;SDS011;14927;51.210;6.838;2023-03-12T14:55:31;27.88;;;5.38;;
27491;SDS011;14927;51.210;6.838;2023-03-12T14:58:17;27.38;;;6.07;;
27491;SDS011;14927;51.210;6.838;2023-03-12T15:01:04;29.15;;;5.13;;
27491;SDS011;14927;51.210;6.838;2023-03-12T15:03:51;18.58;;;4.10;;
27491;SDS011;14927;51.210;6.838;2023-03-12T15:06:44;32.67;;;6.50;;
27491;SDS011;14927;51.210;6.838;2023-03-12T15:09:33;24.83;;;5.25;;
27491;SDS011;14927;51.210;6.838;2023-03-12T15:12:24;28.35;;;5.13;;
27491;SDS011;14927;51.210;6.838;2023-03-12T15:15:23;28.58;;;5.30;;
27491;SDS011;14927;51.210;6.838;2023-03-12T15:18:27;24.77;;;4.85;;
27491;SDS011;14927;51.210;6.838;2023-03-12T15:21:15;27.80;;;5.18;;
27491;SDS011;14927;51.210;6.838;2023-03-12T15:24:01;31.50;;;6.20;;
27491;SDS011;14927;51.210;6.838;2023-03-12T15:26:46;31.85;;;5.68;;
27491;SDS011;14927;51.210;6.838;2023-03-12T15:29:31;25.50;;;5.35;;
27491;SDS011;14927;51.210;6.838;2023-03-12T15:32:17;30.65;;;5.57;;
27491;SDS011;14927;51.210;6.838;2023-03-12T15:35:10;30.88;;;6.05;;
27491;SDS011;14927;51.210;6.838;2023-03-12T15:37:56;26.58;;;6.15;;
27491;SDS011;14927;51.210;6.838;2023-03-12T15:40:47;24.73;;;5.53;;
27491;SDS011;14927;51.210;6.838;2023-03-12T15:43:38;26.35;;;5.32;;
27491;SDS011;14927;51.210;6.838;2023-03-12T15:46:28;27.73;;;5.45;;
27491;SDS011;14927;51.210;6.838;2023-03-12T15:49:17;24.90;;;5.47;;
27491;SDS011;14927;51.210;6.838;2023-03-12T15:57:54;26.48;;;6.20;;
27491;SDS011;14927;51.210;6.838;2023-03-12T16:00:42;28.80;;;6.50;;
27491;SDS011;14927;51.210;6.838;2023-03-12T16:03:28;27.88;;;6.03;;
27491;SDS011;14927;51.210;6.838;2023-03-12T16:06:16;27.35;;;5.60;;
27491;SDS011;14927;51.210;6.838;2023-03-12T16:09:09;25.13;;;4.80;;
27491;SDS011;14927;51.210;6.838;2023-03-12T16:12:00;28.08;;;5.57;;
27491;SDS011;14927;51.210;6.838;2023-03-12T16:14:44;25.58;;;6.18;;
27491;SDS011;14927;51.210;6.838;2023-03-12T16:17:31;26.73;;;5.57;;
27491;SDS011;14927;51.210;6.838;2023-03-12T16:20:16;28.00;;;5.53;;
27491;SDS011;14927;51.210;6.838;2023-03-12T16:23:00;25.33;;;5.88;;
27491;SDS011;14927;51.210;6.838;2023-03-12T16:25:49;25.80;;;4.80;;
27491;SDS011;14927;51.210;6.838;2023-03-12T16:31:21;24.40;;;4.90;;
27491;SDS011;14927;51.210;6.838;2023-03-12T16:34:08;29.92;;;6.60;;
27491;SDS011;14927;51.210;6.838;2023-03-12T16:36:54;27.60;;;6.30;;
27491;SDS011;14927;51.210;6.838;2023-03-12T16:39:39;26.08;;;5.45;;
27491;SDS011;14927;51.210;6.838;2023-03-12T16:42:26;29.25;;;4.90;;
27491;SDS011;14927;51.210;6.838;2023-03-12T16:45:12;25.58;;;5.30;;
27491;SDS011;14927;51.210;6.838;2023-03-12T16:47:59;26.10;;;5.75;;
27491;SDS011;14927;51.210;6.838;2023-03-12T16:50:48;19.23;;;4.90;;
27491;SDS011;14927;51.210;6.838;2023-03-12T16:53:35;26.50;;;5.30;;
27491;SDS011;14927;51.210;6.838;2023-03-12T16:56:20;21.10;;;4.80;;
27491;SDS011;14927;51.210;6.838;2023-03-12T16:59:21;30.10;;;4.95;;
27491;SDS011;14927;51.210;6.838;2023-03-12T17:02:13;20.55;;;5.15;;
27491;SDS011;14927;51.210;6.838;2023-03-12T17:05:01;30.73;;;5.38;;
27491;SDS011;14927;51.210;6.838;2023-03-12T17:07:47;28.52;;;5.43;;
27491;SDS011;14927;51.210;6.838;2023-03-12T17:10:32;28.13;;;5.88;;
27491;SDS011;14927;51.210;6.838;2023-03-12T17:13:17;28.10;;;5.80;;
27491;SDS011;14927;51.210;6.838;2023-03-12T17:16:06;27.47;;;5.53;;
27491;SDS011;14927;51.210;6.838;2023-03-12T17:18:55;19.85;;;4.78;;
27491;SDS011;14927;51.210;6.838;2023-03-12T17:21:40;29.30;;;5.40;;
27491;SDS011;14927;51.210;6.838;2023-03-12T17:24:25;25.23;;;4.93;;
27491;SDS011;14927;51.210;6.838;2023-03-12T17:27:11;27.55;;;5.80;;
27491;SDS011;14927;51.210;6.838;2023-03-12T17:29:57;27.90;;;7.40;;
27491;SDS011;14927;51.210;6.838;2023-03-12T17:32:42;31.75;;;8.13;;
27491;SDS011;14927;51.210;6.838;2023-03-12T17:35:26;30.38;;;7.75;;
27491;SDS011;14927;51.210;6.838;2023-03-12T17:38:11;38.33;;;8.45;;
27491;SDS011;14927;51.210;6.838;2023-03-12T17:40:56;29.92;;;6.93;;
27491;SDS011;14927;51.210;6.838;2023-03-12T17:43:43;25.20;;;5.45;;
27491;SDS011;14927;51.210;6.838;2023-03-12T17:46:28;27.33;;;6.45;;
27491;SDS011;14927;51.210;6.838;2023-03-12T17:49:14;26.23;;;5.03;;
27491;SDS011;14927;51.210;6.838;2023-03-12T17:52:00;22.42;;;4.97;;
27491;SDS011;14927;51.210;6.838;2023-03-12T17:54:46;31.45;;;5.85;;
27491;SDS011;14927;51.210;6.838;2023-03-12T17:57:31;32.67;;;5.78;;
27491;SDS011;14927;51.210;6.838;2023-03-12T18:00:16;28.60;;;6.03;;
27491;SDS011;14927;51.210;6.838;2023-03-12T18:03:01;30.10;;;5.88;;
27491;SDS011;14927;51.210;6.838;2023-03-12T18:05:48;28.48;;;5.38;;
27491;SDS011;14927;51.210;6.838;2023-03-12T18:08:33;26.00;;;4.85;;
27491;SDS011;14927;51.210;6.838;2023-03-12T18:11:17;26.02;;;4.85;;
27491;SDS011;14927;51.210;6.838;2023-03-12T18:14:02;27.05;;;5.60;;
27491;SDS011;14927;51.210;6.838;2023-03-12T18:16:47;21.63;;;5.22;;
27491;SDS011;14927;51.210;6.838;2023-03-12T18:19:31;25.05;;;5.20;;
27491;SDS011;14927;51.210;6.838;2023-03-12T18:22:16;28.83;;;5.38;;
27491;SDS011;14927;51.210;6.838;2023-03-12T18:25:02;25.80;;;5.88;;
27491;SDS011;14927;51.210;6.838;2023-03-12T18:27:48;30.92;;;5.53;;
27491;SDS011;14927;51.210;6.838;2023-03-12T18:30:33;30.55;;;5.10;;
27491;SDS011;14927;51.210;6.838;2023-03-12T18:33:18;22.33;;;5.22;;
27491;SDS011;14927;51.210;6.838;2023-03-12T18:36:03;28.27;;;5.35;;
27491;SDS011;14927;51.210;6.838;2023-03-12T18:38:48;29.27;;;5.40;;
27491;SDS011;14927;51.210;6.838;2023-03-12T18:41:33;25.75;;;6.43;;
27491;SDS011;14927;51.210;6.838;2023-03-12T18:44:18;29.67;;;5.55;;
27491;SDS011;14927;51.210;6.838;2023-03-12T18:47:02;26.75;;;5.32;;
27491;SDS011;14927;51.210;6.838;2023-03-12T18:49:47;29.40;;;5.50;;
27491;SDS011;14927;51.210;6.838;2023-03-12T18:52:36;25.73;;;5.57;;
27491;SDS011;14927;51.210;6.838;2023-03-12T18:55:21;24.40;;;5.97;;
27491;SDS011;14927;51.210;6.838;2023-03-12T18:58:06;30.63;;;5.90;;
27491;SDS011;14927;51.210;6.838;2023-03-12T19:00:54;24.95;;;5.80;;
27491;SDS011;14927;51.210;6.838;2023-03-12T19:03:40;31.95;;;5.97;;
27491;SDS011;14927;51.210;6.838;2023-03-12T19:06:25;28.13;;;5.38;;
27491;SDS011;14927;51.210;6.838;2023-03-12T19:09:10;22.23;;;4.90;;
27491;SDS011;14927;51.210;6.838;2023-03-12T19:11:55;29.55;;;5.72;;
27491;SDS011;14927;51.210;6.838;2023-03-12T19:14:41;38.22;;;5.72;;